Time;durP1;ratioP1;P1;durP2;ratioP2;P2;SDS_P1;SDS_P2;PMS_P1;PMS_P2;Temp;Humidity;BMP_temperature;BMP_pressure;BME280_temperature;BME280_humidity;BME280_pressure;Samples;Min_cycle;Max_cycle;Signal;HPM_P1;HPM_P2
2022/09/03 00:01:09;;;;;;;5.72;2.10;;;;;;;-145.67;100.00;66521.78;4941697;28;20051;-69
2022/09/03 00:03:46;;;;;;;6.65;2.95;;;;;;;-145.67;100.00;66521.78;4920912;28;20167;-67
2022/09/03 00:06:18;;;;;;;4.65;2.20;;;;;;;-145.67;100.00;66521.78;4925003;28;20114;-68
2022/09/03 00:09:03;;;;;;;4.45;2.10;;;;;;;-145.67;100.00;66521.78;4943179;28;20632;-70
2022/09/03 00:11:38;;;;;;;3.10;2.05;;;;;;;-145.67;100.00;66521.78;4941647;28;20035;-68
2022/09/03 00:14:19;;;;;;;3.78;2.10;;;;;;;-145.67;100.00;66521.78;4943434;28;20035;-68
2022/09/03 00:16:57;;;;;;;7.80;2.30;;;;;;;-145.67;100.00;66521.78;4941922;28;20122;-69
2022/09/03 00:19:27;;;;;;;5.15;1.98;;;;;;;-145.67;100.00;66521.78;4945160;28;20042;-67
2022/09/03 00:22:03;;;;;;;4.57;1.95;;;;;;;-145.67;100.00;66521.78;4921996;28;20038;-69
2022/09/03 00:24:33;;;;;;;4.80;2.25;;;;;;;-145.67;100.00;66521.78;4931879;28;20511;-68
2022/09/03 00:27:05;;;;;;;4.20;2.15;;;;;;;-145.67;100.00;66521.78;4905564;28;20041;-67
2022/09/03 00:29:40;;;;;;;5.05;2.10;;;;;;;-145.67;100.00;66521.78;4945122;28;20042;-68
2022/09/03 00:32:19;;;;;;;5.32;2.00;;;;;;;-145.67;100.00;66521.78;4941922;28;20097;-67
2022/09/03 00:34:50;;;;;;;5.60;2.10;;;;;;;-145.67;100.00;66521.78;4942168;28;20035;-68
2022/09/03 00:37:15;;;;;;;4.68;2.50;;;;;;;-145.67;100.00;66521.78;4925202;28;20062;-68
2022/09/03 00:39:41;;;;;;;7.25;2.20;;;;;;;-145.67;100.00;66521.78;4922211;28;20053;-67
2022/09/03 00:42:17;;;;;;;6.05;2.33;;;;;;;-145.67;100.00;66521.78;4943247;28;20043;-66
2022/09/03 00:45:05;;;;;;;3.97;2.13;;;;;;;-145.67;100.00;66521.78;4941291;28;20046;-68
2022/09/03 00:47:56;;;;;;;5.90;2.40;;;;;;;-145.67;100.00;66521.78;4942040;28;20042;-68
2022/09/03 00:50:49;;;;;;;3.95;2.33;;;;;;;-145.67;100.00;66521.78;4942157;28;20046;-68
2022/09/03 00:53:26;;;;;;;4.07;2.33;;;;;;;-145.67;100.00;66521.78;4942778;28;20047;-68
2022/09/03 00:56:28;;;;;;;6.45;2.10;;;;;;;-145.67;100.00;66521.78;4925787;28;20062;-68
2022/09/03 00:58:57;;;;;;;5.40;2.13;;;;;;;-145.67;100.00;66521.78;4941545;28;20035;-67
2022/09/03 01:01:25;;;;;;;4.88;2.60;;;;;;;-145.67;100.00;66521.78;4921397;28;20051;-67
2022/09/03 01:04:08;;;;;;;4.68;2.13;;;;;;;-145.67;100.00;66521.78;4941995;28;20157;-67
2022/09/03 01:07:02;;;;;;;3.92;2.00;;;;;;;-145.67;100.00;66521.78;4921716;28;20042;-67
2022/09/03 01:09:52;;;;;;;4.13;1.85;;;;;;;-145.67;100.00;66521.78;4898097;28;20077;-67
2022/09/03 01:12:37;;;;;;;2.80;1.92;;;;;;;-145.67;100.00;66521.78;4926006;28;22461;-68
2022/09/03 01:15:21;;;;;;;4.40;1.98;;;;;;;-145.67;100.00;66521.78;4940881;28;20122;-68
2022/09/03 01:18:05;;;;;;;4.55;2.47;;;;;;;-145.67;100.00;66521.78;4940866;28;20031;-69
2022/09/03 01:20:52;;;;;;;8.10;2.03;;;;;;;-145.67;100.00;66521.78;4941838;28;20453;-68
2022/09/03 01:23:47;;;;;;;4.70;1.88;;;;;;;-145.67;100.00;66521.78;4942359;28;20597;-67
2022/09/03 01:26:46;;;;;;;5.38;1.98;;;;;;;-145.67;100.00;66521.78;4925614;28;20126;-69
2022/09/03 01:29:33;;;;;;;5.70;2.03;;;;;;;-145.67;100.00;66521.78;4942200;28;20070;-68
2022/09/03 01:32:16;;;;;;;3.40;1.90;;;;;;;-145.67;100.00;66521.78;4890183;28;20171;-69
2022/09/03 01:34:52;;;;;;;3.78;1.98;;;;;;;-145.67;100.00;66521.78;4932672;28;20689;-68
2022/09/03 01:38:00;;;;;;;4.97;2.08;;;;;;;-145.67;100.00;66521.78;4919697;28;20045;-68
2022/09/03 01:40:43;;;;;;;4.88;2.35;;;;;;;-145.67;100.00;66521.78;4928597;28;20051;-69
2022/09/03 01:43:35;;;;;;;7.05;2.10;;;;;;;-145.67;100.00;66521.78;4944825;28;20788;-68
2022/09/03 01:46:12;;;;;;;3.60;2.10;;;;;;;-145.67;100.00;66521.78;4946017;28;20461;-68
2022/09/03 01:48:52;;;;;;;5.80;2.80;;;;;;;-145.67;100.00;66521.78;4928472;28;20031;-68
2022/09/03 01:51:27;;;;;;;7.25;2.20;;;;;;;-145.67;100.00;66521.78;4908426;28;20038;-67
2022/09/03 01:53:58;;;;;;;4.80;2.17;;;;;;;-145.67;100.00;66521.78;4923635;28;20126;-68
2022/09/03 01:56:41;;;;;;;6.63;1.98;;;;;;;-145.67;100.00;66521.78;4944533;28;20097;-68
2022/09/03 01:59:21;;;;;;;6.13;2.17;;;;;;;-145.67;100.00;66521.78;4928137;28;20042;-69
2022/09/03 02:01:55;;;;;;;4.07;2.10;;;;;;;-145.67;100.00;66521.78;4923705;28;20050;-68
2022/09/03 02:04:25;;;;;;;5.53;2.45;;;;;;;-145.67;100.00;66521.78;4922984;28;20046;-68
2022/09/03 02:06:52;;;;;;;4.07;1.90;;;;;;;-145.67;100.00;66521.78;4927979;28;21077;-68
2022/09/03 02:09:18;;;;;;;5.75;2.15;;;;;;;-145.67;100.00;66521.78;4945328;28;20047;-68
2022/09/03 02:11:45;;;;;;;6.93;2.50;;;;;;;-145.67;100.00;66521.78;4924995;28;20242;-68
2022/09/03 02:14:14;;;;;;;3.55;2.00;;;;;;;-145.67;100.00;66521.78;4927813;28;20045;-66
2022/09/03 02:16:39;;;;;;;6.65;2.13;;;;;;;-145.67;100.00;66521.78;4908408;28;20031;-68
2022/09/03 02:19:11;;;;;;;4.47;2.10;;;;;;;-145.67;100.00;66521.78;4944509;28;20045;-68
2022/09/03 02:21:38;;;;;;;3.25;2.17;;;;;;;-145.67;100.00;66521.78;4908325;28;20551;-68
2022/09/03 02:24:04;;;;;;;4.47;2.40;;;;;;;-145.67;100.00;66521.78;4928904;28;20122;-68
2022/09/03 02:26:32;;;;;;;3.63;2.00;;;;;;;-145.67;100.00;66521.78;4940418;28;20043;-68
2022/09/03 02:28:58;;;;;;;5.88;2.30;;;;;;;-145.67;100.00;66521.78;4925385;28;20705;-68
2022/09/03 02:31:23;;;;;;;5.43;2.17;;;;;;;-145.67;100.00;66521.78;4945283;28;20146;-68
2022/09/03 02:33:50;;;;;;;4.55;1.95;;;;;;;-145.67;100.00;66521.78;4944454;28;20031;-68
2022/09/03 02:36:24;;;;;;;4.13;2.10;;;;;;;-145.67;100.00;66521.78;4909399;28;20169;-67
2022/09/03 02:38:49;;;;;;;4.93;2.30;;;;;;;-145.67;100.00;66521.78;4927007;28;20138;-68
2022/09/03 02:41:14;;;;;;;3.45;2.17;;;;;;;-145.67;100.00;66521.78;4943243;28;20056;-69
2022/09/03 02:43:51;;;;;;;3.95;2.10;;;;;;;-145.67;100.00;66521.78;4926492;28;20849;-67
2022/09/03 02:46:35;;;;;;;5.47;2.20;;;;;;;-145.67;100.00;66521.78;4943628;28;20144;-68
2022/09/03 02:49:00;;;;;;;6.15;2.10;;;;;;;-145.67;100.00;66521.78;4944845;28;20047;-69
2022/09/03 02:51:26;;;;;;;4.97;2.20;;;;;;;-145.67;100.00;66521.78;4944698;28;20491;-69
2022/09/03 02:53:51;;;;;;;6.75;2.38;;;;;;;-145.67;100.00;66521.78;4922619;28;20114;-67
2022/09/03 02:56:25;;;;;;;5.35;2.40;;;;;;;-145.67;100.00;66521.78;4945489;28;20043;-68
2022/09/03 02:58:53;;;;;;;4.07;2.10;;;;;;;-145.67;100.00;66521.78;4943975;28;21047;-70
2022/09/03 03:01:21;;;;;;;6.68;2.15;;;;;;;-145.67;100.00;66521.78;4944630;28;20050;-68
2022/09/03 03:03:47;;;;;;;5.82;2.47;;;;;;;-145.67;100.00;66521.78;4941961;28;20042;-69
2022/09/03 03:06:13;;;;;;;3.70;1.90;;;;;;;-145.67;100.00;66521.78;4944328;28;20069;-69
2022/09/03 03:08:39;;;;;;;5.47;2.08;;;;;;;-145.67;100.00;66521.78;4944275;28;20045;-69
2022/09/03 03:11:06;;;;;;;4.10;2.05;;;;;;;-145.67;100.00;66521.78;4944363;28;20039;-70
2022/09/03 03:13:32;;;;;;;5.57;1.90;;;;;;;-145.67;100.00;66521.78;4927032;28;20041;-68
2022/09/03 03:16:02;;;;;;;4.40;2.25;;;;;;;-145.67;100.00;66521.78;4928781;28;20043;-68
2022/09/03 03:18:27;;;;;;;4.57;2.17;;;;;;;-145.67;100.00;66521.78;4906984;28;20031;-68
2022/09/03 03:20:53;;;;;;;9.15;2.17;;;;;;;-145.67;100.00;66521.78;4944855;28;20394;-69
2022/09/03 03:23:19;;;;;;;4.53;2.35;;;;;;;-145.67;100.00;66521.78;4944276;28;20041;-68
2022/09/03 03:25:45;;;;;;;5.40;1.90;;;;;;;-145.67;100.00;66521.78;4910953;28;20038;-68
2022/09/03 03:28:12;;;;;;;3.25;2.28;;;;;;;-145.67;100.00;66521.78;4928018;28;20823;-68
2022/09/03 03:30:41;;;;;;;4.57;2.17;;;;;;;-145.67;100.00;66521.78;4943778;28;20216;-68
2022/09/03 03:33:10;;;;;;;5.22;1.80;;;;;;;-145.67;100.00;66521.78;4944703;28;20476;-68
2022/09/03 03:35:39;;;;;;;5.80;1.90;;;;;;;-145.67;100.00;66521.78;4943836;28;20034;-69
2022/09/03 03:38:05;;;;;;;4.43;2.03;;;;;;;-145.67;100.00;66521.78;4927022;28;20046;-69
2022/09/03 03:40:30;;;;;;;3.42;1.92;;;;;;;-145.67;100.00;66521.78;4929324;28;20519;-68
2022/09/03 03:42:57;;;;;;;5.68;2.25;;;;;;;-145.67;100.00;66521.78;4943227;28;20039;-69
2022/09/03 03:45:22;;;;;;;5.57;1.95;;;;;;;-145.67;100.00;66521.78;4943433;28;20396;-68
2022/09/03 03:47:47;;;;;;;3.70;2.10;;;;;;;-145.67;100.00;66521.78;4943284;28;20049;-69
2022/09/03 03:50:13;;;;;;;3.17;2.03;;;;;;;-145.67;100.00;66521.78;4942451;28;20126;-69
2022/09/03 03:52:40;;;;;;;3.75;2.08;;;;;;;-145.67;100.00;66521.78;4942412;28;20130;-69
2022/09/03 03:55:08;;;;;;;6.18;2.17;;;;;;;-145.67;100.00;66521.78;4943935;28;20035;-69
2022/09/03 03:57:33;;;;;;;3.63;2.28;;;;;;;-145.67;100.00;66521.78;4942133;28;20070;-69
2022/09/03 04:00:01;;;;;;;2.78;2.22;;;;;;;-145.67;100.00;66521.78;4944684;28;20888;-69
2022/09/03 04:02:27;;;;;;;3.70;2.28;;;;;;;-145.67;100.00;66521.78;4941850;28;20118;-68
2022/09/03 04:04:54;;;;;;;5.07;2.13;;;;;;;-145.67;100.00;66521.78;4923256;28;20043;-69
2022/09/03 04:07:20;;;;;;;4.50;2.42;;;;;;;-145.67;100.00;66521.78;4909626;28;20058;-67
2022/09/03 04:09:46;;;;;;;6.78;2.40;;;;;;;-145.67;100.00;66521.78;4943473;28;20046;-68
2022/09/03 04:12:14;;;;;;;5.13;2.17;;;;;;;-145.67;100.00;66521.78;4942295;28;20039;-68
2022/09/03 04:14:39;;;;;;;4.07;2.10;;;;;;;-145.67;100.00;66521.78;4941967;28;20034;-69
2022/09/03 04:17:05;;;;;;;5.45;2.00;;;;;;;-145.67;100.00;66521.78;4943593;28;20045;-68
2022/09/03 04:19:30;;;;;;;5.18;2.30;;;;;;;-145.67;100.00;66521.78;4941389;28;20114;-68
2022/09/03 04:22:00;;;;;;;3.70;2.13;;;;;;;-145.67;100.00;66521.78;4925341;28;20105;-69
2022/09/03 04:24:26;;;;;;;3.63;2.35;;;;;;;-145.67;100.00;66521.78;4941286;28;20030;-69
2022/09/03 04:26:52;;;;;;;5.15;2.30;;;;;;;-145.67;100.00;66521.78;4941739;28;20404;-68
2022/09/03 04:29:18;;;;;;;4.07;2.35;;;;;;;-145.67;100.00;66521.78;4923437;28;20031;-71
2022/09/03 04:32:51;;;;;;;5.85;2.50;;;;;;;-145.67;100.00;66521.78;4906457;28;20035;-68
2022/09/03 04:34:29;;;;;;;7.53;2.50;;;;;;;-145.67;100.00;66521.78;4941497;28;20038;-69
2022/09/03 04:36:56;;;;;;;4.32;2.78;;;;;;;-145.67;100.00;66521.78;4944300;28;20249;-69
2022/09/03 04:39:21;;;;;;;6.25;2.95;;;;;;;-145.67;100.00;66521.78;4928875;28;20148;-69
2022/09/03 04:41:47;;;;;;;6.13;2.72;;;;;;;-145.67;100.00;66521.78;4942628;28;20105;-68
2022/09/03 04:44:12;;;;;;;5.32;2.90;;;;;;;-145.67;100.00;66521.78;4941984;28;20173;-68
2022/09/03 04:46:39;;;;;;;4.75;2.83;;;;;;;-145.67;100.00;66521.78;4942756;28;20081;-68
2022/09/03 04:49:08;;;;;;;7.30;2.90;;;;;;;-145.67;100.00;66521.78;4942426;28;20034;-68
2022/09/03 04:51:36;;;;;;;4.38;3.00;;;;;;;-145.67;100.00;66521.78;4938985;28;20515;-69
2022/09/03 04:54:04;;;;;;;6.18;3.10;;;;;;;-145.67;100.00;66521.78;4941106;28;20043;-70
2022/09/03 04:56:32;;;;;;;6.30;2.85;;;;;;;-145.67;100.00;66521.78;4941072;28;20035;-68
2022/09/03 04:59:03;;;;;;;5.13;3.00;;;;;;;-145.67;100.00;66521.78;4939459;28;20045;-69
2022/09/03 05:01:30;;;;;;;5.07;3.30;;;;;;;-145.67;100.00;66521.78;4933605;28;20166;-69
2022/09/03 05:03:59;;;;;;;6.75;4.13;;;;;;;-145.67;100.00;66521.78;4940655;28;20045;-69
2022/09/03 05:06:28;;;;;;;6.45;3.70;;;;;;;-145.67;100.00;66521.78;4941536;28;20031;-69
2022/09/03 05:08:57;;;;;;;7.10;3.58;;;;;;;-145.67;100.00;66521.78;4925046;28;20125;-70
2022/09/03 05:11:26;;;;;;;5.80;3.72;;;;;;;-145.67;100.00;66521.78;4942104;28;20035;-69
2022/09/03 05:13:54;;;;;;;5.85;3.90;;;;;;;-145.67;100.00;66521.78;4925180;28;20043;-69
2022/09/03 05:16:20;;;;;;;7.70;3.88;;;;;;;-145.67;100.00;66521.78;4923779;28;20031;-68
2022/09/03 05:18:46;;;;;;;9.05;3.97;;;;;;;-145.67;100.00;66521.78;4923575;28;20625;-68
2022/09/03 05:21:14;;;;;;;6.35;4.00;;;;;;;-145.67;100.00;66521.78;4945337;28;20046;-70
2022/09/03 05:23:43;;;;;;;5.63;3.97;;;;;;;-145.67;100.00;66521.78;4944686;28;20031;-69
2022/09/03 05:26:12;;;;;;;9.50;4.43;;;;;;;-145.67;100.00;66521.78;4945177;28;20039;-69
2022/09/03 05:28:39;;;;;;;9.30;3.88;;;;;;;-145.67;100.00;66521.78;4944629;28;20512;-69
2022/09/03 05:31:05;;;;;;;6.75;3.88;;;;;;;-145.67;100.00;66521.78;4929838;28;20042;-68
2022/09/03 05:33:35;;;;;;;5.53;4.03;;;;;;;-145.67;100.00;66521.78;4946068;28;20781;-70
2022/09/03 05:36:03;;;;;;;;;;;;;;;-145.67;100.00;66521.78;4942747;28;20046;-68
2022/09/03 05:38:31;;;;;;;6.80;3.55;;;;;;;-145.67;100.00;66521.78;4944644;28;19921;-70
2022/09/03 05:41:05;;;;;;;7.25;3.80;;;;;;;-145.67;100.00;66521.78;4944534;28;20511;-68
2022/09/03 05:43:30;;;;;;;9.00;3.60;;;;;;;-145.67;100.00;66521.78;4945088;28;20045;-69
2022/09/03 05:46:02;;;;;;;8.95;3.70;;;;;;;-145.67;100.00;66521.78;4944173;28;20074;-69
2022/09/03 05:48:32;;;;;;;6.35;3.40;;;;;;;-145.67;100.00;66521.78;4944251;28;20038;-70
2022/09/03 05:51:04;;;;;;;5.40;3.50;;;;;;;-145.67;100.00;66521.78;4926581;28;20902;-71
2022/09/03 05:53:35;;;;;;;6.30;3.40;;;;;;;-145.67;100.00;66521.78;4946431;28;20134;-69
2022/09/03 05:56:03;;;;;;;7.13;3.30;;;;;;;-145.67;100.00;66521.78;4945832;28;20045;-70
2022/09/03 05:58:32;;;;;;;5.53;3.30;;;;;;;-145.67;100.00;66521.78;4924749;28;20035;-69
2022/09/03 06:00:58;;;;;;;4.75;3.25;;;;;;;-145.67;100.00;66521.78;4944052;28;20054;-69
2022/09/03 06:03:24;;;;;;;5.43;3.28;;;;;;;-145.67;100.00;66521.78;4944169;28;20043;-69
2022/09/03 06:05:50;;;;;;;7.35;3.60;;;;;;;-145.67;100.00;66521.78;4943899;28;20054;-69
2022/09/03 06:08:16;;;;;;;8.45;3.17;;;;;;;-145.67;100.00;66521.78;4928804;28;20035;-69
2022/09/03 06:10:41;;;;;;;6.97;3.60;;;;;;;-145.67;100.00;66521.78;4943687;28;20031;-69
2022/09/03 06:13:06;;;;;;;5.85;3.30;;;;;;;-145.67;100.00;66521.78;4944444;28;20661;-69
2022/09/03 06:15:32;;;;;;;6.53;3.42;;;;;;;-145.67;100.00;66521.78;4927112;28;20165;-69
2022/09/03 06:17:57;;;;;;;5.20;3.00;;;;;;;-145.67;100.00;66521.78;4942640;28;20035;-69
2022/09/03 06:20:26;;;;;;;8.25;3.05;;;;;;;-145.67;100.00;66521.78;4927411;28;20039;-68
2022/09/03 06:22:52;;;;;;;4.57;2.63;;;;;;;-145.67;100.00;66521.78;4944767;28;20061;-68
2022/09/03 06:25:18;;;;;;;5.57;2.72;;;;;;;-145.67;100.00;66521.78;4943774;28;20035;-70
2022/09/03 06:27:44;;;;;;;5.43;2.85;;;;;;;-145.67;100.00;66521.78;4914089;28;20300;-69
2022/09/03 06:30:12;;;;;;;7.30;2.70;;;;;;;-145.67;100.00;66521.78;4944188;28;20228;-68
2022/09/03 06:32:49;;;;;;;6.07;2.47;;;;;;;-145.67;100.00;66521.78;4923017;28;20179;-69
2022/09/03 06:35:14;;;;;;;4.50;2.50;;;;;;;-145.67;100.00;66521.78;4907263;28;20038;-68
2022/09/03 06:37:43;;;;;;;5.68;2.40;;;;;;;-145.67;100.00;66521.78;4941970;28;20688;-69
2022/09/03 06:40:12;;;;;;;5.57;2.40;;;;;;;-145.67;100.00;66521.78;4943977;28;20054;-68
2022/09/03 06:42:41;;;;;;;5.80;2.40;;;;;;;-145.67;100.00;66521.78;4925933;28;22297;-70
2022/09/03 06:45:10;;;;;;;5.38;2.13;;;;;;;-145.67;100.00;66521.78;4906407;28;20049;-70
2022/09/03 06:47:35;;;;;;;5.70;2.13;;;;;;;-145.67;100.00;66521.78;4941763;28;20043;-69
2022/09/03 06:50:01;;;;;;;4.43;2.17;;;;;;;-145.67;100.00;66521.78;4942585;28;20231;-68
2022/09/03 06:52:27;;;;;;;6.28;1.98;;;;;;;-145.67;100.00;66521.78;4944399;28;20051;-70
2022/09/03 06:54:53;;;;;;;4.30;2.08;;;;;;;-145.67;100.00;66521.78;4921160;28;20595;-69
2022/09/03 06:57:18;;;;;;;5.22;2.10;;;;;;;-145.67;100.00;66521.78;4942293;28;20039;-69
2022/09/03 06:59:44;;;;;;;3.40;1.98;;;;;;;-145.67;100.00;66521.78;4941531;28;20053;-69
2022/09/03 07:02:09;;;;;;;3.22;1.55;;;;;;;-145.67;100.00;66521.78;4927290;28;20472;-72
2022/09/03 07:04:35;;;;;;;2.63;1.60;;;;;;;-145.67;100.00;66521.78;4943890;28;20089;-75
2022/09/03 07:07:03;;;;;;;4.05;1.80;;;;;;;-145.67;100.00;66521.78;4932436;28;20042;-74
2022/09/03 07:09:28;;;;;;;2.88;1.65;;;;;;;-145.67;100.00;66521.78;4942024;28;20556;-72
2022/09/03 07:11:53;;;;;;;5.85;1.90;;;;;;;-145.67;100.00;66521.78;4954597;28;20046;-71
2022/09/03 07:14:20;;;;;;;3.33;1.60;;;;;;;-145.67;100.00;66521.78;4927754;28;20456;-72
2022/09/03 07:16:50;;;;;;;3.47;1.50;;;;;;;-145.67;100.00;66521.78;4956014;28;20043;-72
2022/09/03 07:19:16;;;;;;;5.03;1.73;;;;;;;-145.67;100.00;66521.78;4956946;28;20499;-72
2022/09/03 07:21:42;;;;;;;5.13;1.52;;;;;;;-145.67;100.00;66521.78;4952187;28;20054;-72
2022/09/03 07:24:09;;;;;;;4.03;1.48;;;;;;;-145.67;100.00;66521.78;4948583;28;20041;-71
2022/09/03 07:26:39;;;;;;;4.38;1.50;;;;;;;-145.67;100.00;66521.78;4921837;28;20059;-73
2022/09/03 07:29:06;;;;;;;3.58;1.35;;;;;;;-145.67;100.00;66521.78;4953240;28;20055;-70
2022/09/03 07:31:37;;;;;;;3.78;1.30;;;;;;;-145.67;100.00;66521.78;4956107;28;20026;-71
2022/09/03 07:34:07;;;;;;;2.33;1.20;;;;;;;-145.67;100.00;66521.78;4959942;28;20100;-71
2022/09/03 07:36:41;;;;;;;5.18;1.63;;;;;;;-145.67;100.00;66521.78;4956170;28;20094;-70
2022/09/03 07:39:07;;;;;;;6.32;1.70;;;;;;;-145.67;100.00;66521.78;4941196;28;20043;-71
2022/09/03 07:41:33;;;;;;;7.88;1.60;;;;;;;-145.67;100.00;66521.78;4947729;28;20522;-70
2022/09/03 07:44:04;;;;;;;5.97;1.48;;;;;;;-145.67;100.00;66521.78;4963913;28;20027;-71
2022/09/03 07:46:32;;;;;;;2.90;1.40;;;;;;;-145.67;100.00;66521.78;4945078;28;20077;-71
2022/09/03 07:49:01;;;;;;;3.13;1.60;;;;;;;-145.67;100.00;66521.78;4962808;28;20125;-70
2022/09/03 07:51:28;;;;;;;3.88;1.30;;;;;;;-145.67;100.00;66521.78;4964238;28;20380;-70
2022/09/03 07:53:56;;;;;;;7.25;1.70;;;;;;;-145.67;100.00;66521.78;4943513;28;20722;-70
2022/09/03 07:56:22;;;;;;;4.20;1.67;;;;;;;-145.67;100.00;66521.78;4955939;28;20094;-71
2022/09/03 07:58:50;;;;;;;4.70;1.48;;;;;;;-145.67;100.00;66521.78;4937399;28;20039;-69
2022/09/03 08:01:20;;;;;;;9.18;1.73;;;;;;;-145.67;100.00;66521.78;4935791;28;20043;-70
2022/09/03 08:03:48;;;;;;;6.07;1.58;;;;;;;-145.67;100.00;66521.78;4929216;28;20031;-69
2022/09/03 08:06:18;;;;;;;3.83;1.23;;;;;;;-145.67;100.00;66521.78;4958337;28;20158;-71
2022/09/03 08:08:44;;;;;;;4.53;1.27;;;;;;;-145.67;100.00;66521.78;4950303;28;20078;-71
2022/09/03 08:11:11;;;;;;;7.05;1.55;;;;;;;-145.67;100.00;66521.78;4937399;28;20020;-70
2022/09/03 08:13:37;;;;;;;5.13;1.63;;;;;;;-145.67;100.00;66521.78;4940873;28;20178;-70
2022/09/03 08:16:04;;;;;;;5.35;1.40;;;;;;;-145.67;100.00;66521.78;4948008;28;20042;-70
2022/09/03 08:18:34;;;;;;;3.30;1.50;;;;;;;-145.67;100.00;66521.78;4956427;28;20031;-70
2022/09/03 08:20:59;;;;;;;3.92;1.40;;;;;;;-145.67;100.00;66521.78;4946193;28;20050;-70
2022/09/03 08:23:27;;;;;;;5.50;1.33;;;;;;;-145.67;100.00;66521.78;4943262;29;20027;-72
2022/09/03 08:26:00;;;;;;;6.63;1.50;;;;;;;-145.67;100.00;66521.78;4927732;28;20035;-71
2022/09/03 08:28:25;;;;;;;3.67;1.38;;;;;;;-145.67;100.00;66521.78;4930717;28;20032;-70
2022/09/03 08:30:51;;;;;;;4.90;1.60;;;;;;;-145.67;100.00;66521.78;4944689;28;20042;-70
2022/09/03 08:33:36;;;;;;;4.13;1.42;;;;;;;-145.67;100.00;66521.78;4946858;28;20114;-70
2022/09/03 08:36:13;;;;;;;3.15;1.40;;;;;;;-145.67;100.00;66521.78;4928215;28;20066;-69
2022/09/03 08:38:41;;;;;;;4.60;1.70;;;;;;;-145.67;100.00;66521.78;4962224;28;20424;-70
2022/09/03 08:41:16;;;;;;;4.50;1.48;;;;;;;-145.67;100.00;66521.78;4947554;28;20047;-70
2022/09/03 08:43:58;;;;;;;6.30;1.65;;;;;;;-145.67;100.00;66521.78;4953001;28;20160;-70
2022/09/03 08:46:31;;;;;;;3.58;1.40;;;;;;;-145.67;100.00;66521.78;4942970;28;20054;-70
2022/09/03 08:48:58;;;;;;;4.28;1.50;;;;;;;-145.67;100.00;66521.78;4925728;28;20031;-70
2022/09/03 08:51:26;;;;;;;5.63;1.30;;;;;;;-145.67;100.00;66521.78;4964744;28;20361;-71
2022/09/03 08:53:56;;;;;;;5.32;2.00;;;;;;;-145.67;100.00;66521.78;4941618;28;20603;-70
2022/09/03 08:56:27;;;;;;;4.47;1.63;;;;;;;-145.67;100.00;66521.78;4946814;28;20039;-70
2022/09/03 08:58:55;;;;;;;4.75;1.50;;;;;;;-145.67;100.00;66521.78;4944755;28;20540;-69
2022/09/03 09:01:51;;;;;;;3.08;1.70;;;;;;;-145.67;100.00;66521.78;4942923;28;20051;-68
2022/09/03 09:04:35;;;;;;;4.95;1.40;;;;;;;-145.67;100.00;66521.78;4948492;28;20555;-69
2022/09/03 09:07:10;;;;;;;5.40;1.60;;;;;;;-145.67;100.00;66521.78;4951835;28;20023;-69
2022/09/03 09:10:13;;;;;;;5.25;1.40;;;;;;;-145.67;100.00;66521.78;4938947;28;20048;-69
2022/09/03 09:13:09;;;;;;;4.97;1.55;;;;;;;-145.67;100.00;66521.78;4946354;28;20035;-70
2022/09/03 09:15:42;;;;;;;7.22;1.45;;;;;;;-145.67;100.00;66521.78;4918930;29;20035;-71
2022/09/03 09:18:29;;;;;;;3.80;1.60;;;;;;;-145.67;100.00;66521.78;4945188;28;20062;-70
2022/09/03 09:21:17;;;;;;;4.40;1.63;;;;;;;-145.67;100.00;66521.78;4947951;28;20519;-70
2022/09/03 09:23:46;;;;;;;4.07;1.40;;;;;;;-145.67;100.00;66521.78;4940970;28;20035;-71
2022/09/03 09:26:14;;;;;;;3.13;1.13;;;;;;;-145.67;100.00;66521.78;4950783;28;20043;-71
2022/09/03 09:28:44;;;;;;;3.28;1.30;;;;;;;-145.67;100.00;66521.78;4961449;28;20110;-71
2022/09/03 09:31:17;;;;;;;3.60;1.50;;;;;;;-145.67;100.00;66521.78;4940891;28;20480;-71
2022/09/03 09:33:43;;;;;;;3.97;1.35;;;;;;;-145.67;100.00;66521.78;4958946;28;20035;-72
2022/09/03 09:36:14;;;;;;;3.15;1.40;;;;;;;-145.67;100.00;66521.78;4959209;28;20600;-70
2022/09/03 09:38:40;;;;;;;6.35;1.73;;;;;;;-145.67;100.00;66521.78;4960634;28;20039;-72
2022/09/03 09:41:09;;;;;;;3.40;1.20;;;;;;;-145.67;100.00;66521.78;4947422;28;20177;-71
2022/09/03 09:43:34;;;;;;;2.30;1.17;;;;;;;-145.67;100.00;66521.78;4957304;28;20071;-71
2022/09/03 09:46:07;;;;;;;2.88;1.33;;;;;;;-145.67;100.00;66521.78;4949899;28;20031;-70
2022/09/03 09:48:38;;;;;;;5.72;1.70;;;;;;;-145.67;100.00;66521.78;4961607;28;20042;-71
2022/09/03 09:51:21;;;;;;;5.80;1.30;;;;;;;-145.67;100.00;66521.78;4926408;28;20368;-71
2022/09/03 09:53:47;;;;;;;4.07;1.33;;;;;;;-145.67;100.00;66521.78;4922728;28;20075;-71
2022/09/03 09:56:24;;;;;;;2.78;1.10;;;;;;;-145.67;100.00;66521.78;4928052;28;20532;-71
2022/09/03 09:59:01;;;;;;;2.70;1.08;;;;;;;-145.67;100.00;66521.78;4926696;28;20039;-72
2022/09/03 10:01:29;;;;;;;2.30;1.10;;;;;;;-145.67;100.00;66521.78;4926253;28;20051;-73
2022/09/03 10:03:59;;;;;;;4.97;1.05;;;;;;;-145.67;100.00;66521.78;4925723;28;20436;-71
2022/09/03 10:09:15;;;;;;;6.70;1.42;;;;;;;-145.67;100.00;66521.78;4928476;28;20042;-72
2022/09/03 10:11:49;;;;;;;3.35;1.20;;;;;;;-145.67;100.00;66521.78;4926887;28;20038;-71
2022/09/03 10:14:21;;;;;;;2.63;1.02;;;;;;;-145.67;100.00;66521.78;4921488;28;20565;-71
2022/09/03 10:16:51;;;;;;;3.22;1.08;;;;;;;-145.67;100.00;66521.78;4941429;28;20048;-73
2022/09/03 10:19:24;;;;;;;7.70;1.20;;;;;;;-145.67;100.00;66521.78;4924947;28;20122;-72
2022/09/03 10:22:02;;;;;;;4.40;1.38;;;;;;;-145.67;100.00;66521.78;4925288;28;20123;-70
2022/09/03 10:24:39;;;;;;;3.72;1.10;;;;;;;-145.67;100.00;66521.78;4926770;28;20031;-71
2022/09/03 10:27:11;;;;;;;5.32;1.35;;;;;;;-145.67;100.00;66521.78;4920630;28;20102;-70
2022/09/03 10:29:41;;;;;;;5.63;1.00;;;;;;;-145.67;100.00;66521.78;4909039;28;20077;-73
2022/09/03 10:32:40;;;;;;;3.40;1.20;;;;;;;-145.67;100.00;66521.78;4924767;28;20059;-71
2022/09/03 10:35:21;;;;;;;2.75;1.30;;;;;;;-145.67;100.00;66521.78;4923797;28;20043;-72
2022/09/03 10:37:50;;;;;;;5.10;1.13;;;;;;;-145.67;100.00;66521.78;4927122;28;20141;-72
2022/09/03 10:40:34;;;;;;;4.18;1.17;;;;;;;-145.67;100.00;66521.78;4925854;28;20039;-71
2022/09/03 10:43:19;;;;;;;2.72;1.10;;;;;;;-145.67;100.00;66521.78;4925995;28;20043;-71
2022/09/03 10:46:12;;;;;;;4.55;1.30;;;;;;;-145.67;100.00;66521.78;4938989;28;20123;-72
2022/09/03 10:49:09;;;;;;;3.20;1.35;;;;;;;-145.67;100.00;66521.78;4929494;28;20035;-72
2022/09/03 10:51:39;;;;;;;7.68;1.20;;;;;;;-145.67;100.00;66521.78;4925612;28;20113;-71
2022/09/03 10:54:31;;;;;;;4.60;1.05;;;;;;;-145.67;100.00;66521.78;4939622;28;20047;-71
2022/09/03 10:57:07;;;;;;;2.80;1.10;;;;;;;-145.67;100.00;66521.78;4924972;28;20031;-72
2022/09/03 10:59:42;;;;;;;2.50;1.10;;;;;;;-145.67;100.00;66521.78;4925216;28;20075;-73
2022/09/03 11:02:29;;;;;;;3.88;1.35;;;;;;;-145.67;100.00;66521.78;4924445;28;20051;-73
2022/09/03 11:05:06;;;;;;;4.78;1.30;;;;;;;-145.67;100.00;66521.78;4924907;28;20564;-73
2022/09/03 11:07:42;;;;;;;6.22;1.30;;;;;;;-145.67;100.00;66521.78;4924502;28;20043;-73
2022/09/03 11:10:17;;;;;;;4.05;1.40;;;;;;;-145.67;100.00;66521.78;4939091;28;20407;-72
2022/09/03 11:12:47;;;;;;;5.80;1.20;;;;;;;-145.67;100.00;66521.78;4939062;28;20081;-72
2022/09/03 11:15:24;;;;;;;6.85;1.40;;;;;;;-145.67;100.00;66521.78;4924728;28;20040;-70
2022/09/03 11:17:55;;;;;;;2.78;0.98;;;;;;;-145.67;100.00;66521.78;4924957;28;20090;-71
2022/09/03 11:20:25;;;;;;;1.92;1.00;;;;;;;-145.67;100.00;66521.78;4924684;28;20137;-71
2022/09/03 11:22:53;;;;;;;4.65;1.10;;;;;;;-145.67;100.00;66521.78;4924535;28;20035;-71
2022/09/03 11:25:22;;;;;;;3.42;1.20;;;;;;;-145.67;100.00;66521.78;4937988;28;20529;-70
2022/09/03 11:28:18;;;;;;;4.55;1.10;;;;;;;-145.67;100.00;66521.78;4925663;28;20522;-70
2022/09/03 11:30:59;;;;;;;5.15;1.15;;;;;;;-145.67;100.00;66521.78;4920131;28;20038;-72
2022/09/03 11:33:28;;;;;;;3.38;1.20;;;;;;;-145.67;100.00;66521.78;4903769;28;20035;-72